Time;durP1;ratioP1;P1;durP2;ratioP2;P2;SDS_P1;SDS_P2;PMS_P1;PMS_P2;Temp;Humidity;BMP_temperature;BMP_pressure;BME280_temperature;BME280_humidity;BME280_pressure;Samples;Min_cycle;Max_cycle;Signal;HPM_P1;HPM_P2
2021/07/21 00:00:30;;;;;;;0.40;0.40;;;17.00;99.90;;;;;;5029755;28;20757;-84
2021/07/21 00:02:56;;;;;;;0.20;0.20;;;17.00;99.90;;;;;;5013889;28;20701;-84
2021/07/21 00:05:25;;;;;;;1.73;1.00;;;17.00;99.90;;;;;;5038646;28;20185;-83
2021/07/21 00:07:51;;;;;;;2.43;0.40;;;17.20;99.90;;;;;;5014071;28;20658;-84
2021/07/21 00:10:20;;;;;;;2.80;0.47;;;17.10;99.90;;;;;;5011998;28;20186;-84
2021/07/21 00:15:33;;;;;;;0.60;0.60;;;16.90;99.90;;;;;;5031658;28;20277;-84
2021/07/21 00:18:14;;;;;;;0.40;0.40;;;16.90;99.90;;;;;;5010491;28;20545;-84
2021/07/21 00:20:39;;;;;;;0.50;0.50;;;17.00;99.90;;;;;;5007963;28;20193;-84
2021/07/21 00:23:05;;;;;;;0.30;0.30;;;16.90;99.90;;;;;;5030954;28;20186;-84
2021/07/21 00:25:30;;;;;;;0.73;0.43;;;16.90;99.90;;;;;;5029067;28;20308;-84
2021/07/21 00:27:56;;;;;;;0.70;0.40;;;16.90;99.90;;;;;;5012825;28;20202;-83
2021/07/21 00:30:22;;;;;;;1.47;0.70;;;16.90;99.90;;;;;;5011964;28;20288;-83
2021/07/21 00:32:49;;;;;;;0.47;0.47;;;16.80;99.90;;;;;;5015927;28;20265;-85
2021/07/21 00:35:17;;;;;;;0.40;0.20;;;16.70;99.90;;;;;;5034777;28;20178;-85
2021/07/21 00:37:43;;;;;;;0.37;0.27;;;16.70;99.90;;;;;;5033932;28;20237;-83
2021/07/21 00:40:10;;;;;;;0.40;0.40;;;16.60;99.90;;;;;;5017675;28;20663;-84
2021/07/21 00:42:36;;;;;;;0.40;0.40;;;16.70;99.90;;;;;;5028728;28;20255;-84
2021/07/21 00:45:02;;;;;;;0.47;0.47;;;16.70;99.90;;;;;;5016740;28;20539;-84
2021/07/21 00:47:28;;;;;;;0.70;0.40;;;16.80;99.90;;;;;;5023047;28;20295;-84
2021/07/21 00:49:53;;;;;;;1.70;0.53;;;16.80;99.90;;;;;;5034998;28;20301;-84
2021/07/21 00:52:19;;;;;;;0.17;0.10;;;16.70;99.90;;;;;;5034070;28;20701;-84
2021/07/21 00:54:46;;;;;;;0.27;0.27;;;16.70;99.90;;;;;;5017397;28;20252;-83
2021/07/21 00:57:12;;;;;;;0.30;0.30;;;16.70;99.90;;;;;;5015606;28;20190;-84
2021/07/21 00:59:38;;;;;;;0.23;0.23;;;16.70;99.90;;;;;;5032462;28;20690;-84
2021/07/21 01:02:05;;;;;;;0.27;0.27;;;16.60;99.90;;;;;;5017143;28;20285;-84
2021/07/21 01:04:32;;;;;;;0.33;0.33;;;16.60;99.90;;;;;;5020090;28;20210;-85
2021/07/21 01:06:59;;;;;;;0.73;0.30;;;16.70;99.90;;;;;;5016972;28;20232;-84
2021/07/21 01:09:26;;;;;;;0.30;0.30;;;16.80;99.90;;;;;;5016667;28;20616;-83
2021/07/21 01:12:04;;;;;;;0.47;0.47;;;16.80;99.90;;;;;;5014010;28;20691;-84
2021/07/21 01:14:41;;;;;;;0.40;0.40;;;16.90;99.90;;;;;;5033613;28;20186;-84
2021/07/21 01:17:11;;;;;;;2.37;0.73;;;17.00;99.90;;;;;;5014194;28;20185;-85
2021/07/21 01:19:40;;;;;;;0.37;0.30;;;16.90;99.90;;;;;;5020371;28;20588;-84
2021/07/21 01:22:25;;;;;;;0.53;0.43;;;16.90;99.90;;;;;;5014839;28;20189;-83
2021/07/21 01:25:13;;;;;;;0.90;0.47;;;16.90;99.90;;;;;;5029715;28;20193;-84
2021/07/21 01:27:46;;;;;;;1.13;0.60;;;16.60;99.90;;;;;;5014921;28;20210;-85
2021/07/21 01:30:22;;;;;;;0.80;0.40;;;16.40;99.90;;;;;;5032190;28;20205;-84
2021/07/21 01:32:53;;;;;;;1.47;0.80;;;16.20;99.90;;;;;;5032805;28;20185;-84
2021/07/21 01:35:32;;;;;;;0.70;0.50;;;16.00;99.90;;;;;;5032878;28;20202;-83
2021/07/21 01:38:04;;;;;;;0.50;0.50;;;15.90;99.90;;;;;;5015312;28;20674;-84
2021/07/21 01:40:39;;;;;;;0.97;0.97;;;15.70;99.90;;;;;;5024095;28;20224;-84
2021/07/21 01:43:07;;;;;;;1.60;0.67;;;15.70;99.90;;;;;;5015751;28;20661;-84
2021/07/21 01:45:34;;;;;;;1.13;0.60;;;15.70;99.90;;;;;;5015287;28;20200;-83
2021/07/21 01:48:01;;;;;;;0.33;0.33;;;15.60;99.90;;;;;;5013227;28;20296;-83
2021/07/21 01:50:30;;;;;;;0.40;0.40;;;15.60;99.90;;;;;;5019763;28;20178;-84
2021/07/21 01:52:58;;;;;;;0.30;0.30;;;15.50;99.90;;;;;;5040324;28;20179;-84
2021/07/21 01:55:24;;;;;;;1.23;0.30;;;15.50;99.90;;;;;;5014437;28;20196;-85
2021/07/21 01:57:51;;;;;;;2.33;0.80;;;15.50;99.90;;;;;;5053699;28;20263;-84
2021/07/21 02:00:17;;;;;;;0.47;0.47;;;15.30;99.90;;;;;;5023469;28;20189;-83
2021/07/21 02:02:52;;;;;;;0.30;0.30;;;15.30;99.90;;;;;;5015037;28;20194;-84
2021/07/21 02:05:19;;;;;;;0.60;0.50;;;15.20;99.90;;;;;;5014973;28;20275;-84
2021/07/21 02:07:47;;;;;;;0.20;0.20;;;15.20;99.90;;;;;;5020009;28;20184;-84
2021/07/21 02:10:17;;;;;;;0.50;0.50;;;15.20;99.90;;;;;;5005603;28;20219;-84
2021/07/21 02:12:45;;;;;;;0.30;0.30;;;15.20;99.90;;;;;;5013999;28;20564;-83
2021/07/21 02:15:11;;;;;;;1.60;0.90;;;15.10;99.90;;;;;;5014959;28;20277;-83
2021/07/21 02:17:40;;;;;;;0.50;0.50;;;15.10;99.90;;;;;;5014955;28;20281;-84
2021/07/21 02:20:09;;;;;;;0.53;0.33;;;15.00;99.90;;;;;;5031678;28;20189;-84
2021/07/21 02:22:35;;;;;;;1.17;0.60;;;14.90;99.90;;;;;;5031334;28;20519;-85
2021/07/21 02:25:02;;;;;;;1.33;0.93;;;14.80;99.90;;;;;;5013374;28;20215;-85
2021/07/21 02:27:27;;;;;;;0.50;0.43;;;14.80;99.90;;;;;;5030359;28;20204;-84
2021/07/21 02:29:53;;;;;;;1.33;0.33;;;14.80;99.90;;;;;;5014590;28;20225;-84
2021/07/21 02:32:26;;;;;;;0.37;0.37;;;14.70;99.90;;;;;;5030682;28;20239;-87
2021/07/21 02:34:52;;;;;;;0.40;0.40;;;14.70;99.90;;;;;;5014921;28;20180;-86
2021/07/21 02:37:19;;;;;;;0.50;0.50;;;14.60;99.90;;;;;;5013268;28;20184;-86
2021/07/21 02:39:47;;;;;;;0.47;0.47;;;14.60;99.90;;;;;;5032028;28;20762;-86
2021/07/21 02:42:14;;;;;;;0.83;0.70;;;14.50;99.90;;;;;;5032426;28;20671;-86
2021/07/21 02:44:45;;;;;;;1.60;1.50;;;14.40;99.90;;;;;;5033083;28;20275;-86
2021/07/21 02:47:11;;;;;;;1.50;1.40;;;14.40;99.90;;;;;;5013574;28;20694;-86
2021/07/21 02:49:38;;;;;;;1.40;1.30;;;14.30;99.90;;;;;;5023348;28;20714;-87
2021/07/21 02:52:20;;;;;;;1.50;1.30;;;14.30;99.90;;;;;;5013569;28;20183;-86
2021/07/21 02:54:59;;;;;;;2.57;1.13;;;14.20;99.90;;;;;;5011177;28;20638;-86
2021/07/21 02:57:41;;;;;;;1.60;1.50;;;14.20;99.90;;;;;;5014429;28;20230;-86
2021/07/21 03:00:13;;;;;;;2.77;1.27;;;14.20;99.90;;;;;;5011359;28;20274;-86
2021/07/21 03:02:40;;;;;;;1.03;0.50;;;14.10;99.90;;;;;;5013157;28;20567;-85
2021/07/21 03:05:09;;;;;;;0.43;0.43;;;14.20;99.90;;;;;;5012398;28;20287;-83
2021/07/21 03:07:38;;;;;;;0.80;0.77;;;14.20;99.90;;;;;;5001641;28;20206;-84
2021/07/21 03:10:06;;;;;;;2.17;1.97;;;14.20;99.90;;;;;;5018693;28;20184;-84
2021/07/21 03:12:38;;;;;;;0.17;0.10;;;14.20;99.90;;;;;;5013601;28;20249;-83
2021/07/21 03:15:05;;;;;;;1.70;1.50;;;14.20;99.90;;;;;;5026618;28;20568;-84
2021/07/21 03:17:35;;;;;;;0.40;0.40;;;14.20;99.90;;;;;;5022728;28;20185;-84
2021/07/21 03:20:03;;;;;;;0.80;0.57;;;14.20;99.90;;;;;;5034372;28;20215;-84
2021/07/21 03:22:29;;;;;;;0.60;0.53;;;14.10;99.90;;;;;;5024486;28;20191;-84
2021/07/21 03:24:55;;;;;;;0.40;0.40;;;14.10;99.90;;;;;;5025178;28;20262;-84
2021/07/21 03:27:21;;;;;;;0.20;0.20;;;14.10;99.90;;;;;;5007100;28;20206;-84
2021/07/21 03:29:52;;;;;;;0.37;0.33;;;14.10;99.90;;;;;;5012885;28;20288;-84
2021/07/21 03:32:19;;;;;;;2.43;0.57;;;14.20;99.90;;;;;;5014056;28;20702;-84
2021/07/21 03:34:47;;;;;;;0.30;0.30;;;14.20;99.90;;;;;;5013529;28;20182;-84
2021/07/21 03:37:14;;;;;;;0.20;0.20;;;14.20;99.90;;;;;;5029273;28;20553;-84
2021/07/21 03:39:40;;;;;;;0.50;0.50;;;14.20;99.90;;;;;;5013668;28;20218;-84
2021/07/21 03:42:07;;;;;;;0.73;0.40;;;14.20;99.90;;;;;;5005206;28;20179;-84
2021/07/21 03:44:33;;;;;;;0.40;0.40;;;14.20;99.90;;;;;;5011983;28;20194;-83
2021/07/21 03:47:00;;;;;;;0.40;0.30;;;14.20;99.90;;;;;;5013624;28;20227;-83
2021/07/21 03:49:27;;;;;;;0.87;0.60;;;14.30;99.90;;;;;;5031129;28;20210;-84
2021/07/21 03:51:53;;;;;;;0.27;0.17;;;14.20;99.90;;;;;;5013009;28;20602;-84
2021/07/21 03:54:20;;;;;;;1.60;0.60;;;14.20;99.90;;;;;;5010363;28;20221;-84
2021/07/21 03:56:48;;;;;;;0.47;0.47;;;14.20;99.90;;;;;;5014720;28;20178;-85
2021/07/21 03:59:17;;;;;;;0.20;0.20;;;14.30;99.90;;;;;;5009844;28;20272;-84
2021/07/21 04:01:45;;;;;;;1.27;1.17;;;14.50;99.90;;;;;;5035382;28;20220;-84
2021/07/21 04:04:13;;;;;;;0.47;0.47;;;14.60;99.90;;;;;;5012780;28;20285;-84
2021/07/21 04:06:40;;;;;;;0.27;0.27;;;14.90;99.90;;;;;;5027930;28;20194;-84
2021/07/21 04:09:09;;;;;;;0.50;0.50;;;15.00;99.90;;;;;;5013522;28;20311;-84
2021/07/21 04:11:36;;;;;;;0.43;0.43;;;14.80;99.90;;;;;;5012514;28;20181;-84
2021/07/21 04:14:07;;;;;;;0.43;0.43;;;14.60;99.90;;;;;;5012964;28;20236;-84
2021/07/21 04:16:34;;;;;;;0.57;0.57;;;14.80;99.90;;;;;;5012511;28;20303;-84
2021/07/21 04:19:03;;;;;;;1.50;0.30;;;15.30;99.90;;;;;;5020285;28;20229;-84
2021/07/21 04:21:30;;;;;;;1.03;0.70;;;15.60;99.90;;;;;;5013370;28;20687;-84
2021/07/21 04:23:57;;;;;;;0.70;0.70;;;15.60;99.90;;;;;;5011223;28;20660;-85
2021/07/21 04:26:25;;;;;;;0.43;0.43;;;15.20;99.90;;;;;;5026691;28;20241;-84
2021/07/21 04:28:51;;;;;;;0.50;0.50;;;14.90;99.90;;;;;;5019714;28;20565;-84
2021/07/21 04:31:25;;;;;;;0.40;0.23;;;14.90;99.90;;;;;;5019304;28;20824;-83
2021/07/21 04:33:54;;;;;;;0.13;0.13;;;14.90;99.90;;;;;;5008469;28;20195;-84
2021/07/21 04:36:22;;;;;;;0.23;0.23;;;14.90;99.90;;;;;;5016847;28;20183;-84
2021/07/21 04:38:49;;;;;;;0.30;0.30;;;14.90;99.90;;;;;;5011118;28;20212;-85
2021/07/21 04:41:15;;;;;;;1.07;0.50;;;15.00;99.90;;;;;;5013096;28;20193;-84
2021/07/21 04:43:42;;;;;;;1.07;0.67;;;15.00;99.90;;;;;;5025023;28;20239;-84
2021/07/21 04:46:09;;;;;;;0.20;0.20;;;15.10;99.90;;;;;;5010363;28;20433;-84
2021/07/21 04:48:37;;;;;;;0.40;0.40;;;15.10;99.90;;;;;;5029960;28;20201;-85
2021/07/21 04:51:03;;;;;;;1.17;0.77;;;15.10;99.90;;;;;;5024673;28;20198;-85
2021/07/21 04:53:31;;;;;;;0.70;0.70;;;15.20;99.90;;;;;;5029351;28;20261;-85
2021/07/21 04:55:57;;;;;;;0.27;0.27;;;15.30;99.90;;;;;;5012330;28;20226;-86
2021/07/21 04:58:22;;;;;;;0.13;0.13;;;15.40;99.90;;;;;;5013044;28;20212;-85
2021/07/21 05:00:51;;;;;;;0.27;0.27;;;15.60;99.90;;;;;;5011872;28;20667;-86
2021/07/21 05:03:17;;;;;;;0.30;0.30;;;15.60;99.90;;;;;;5009124;28;20695;-86
2021/07/21 05:05:43;;;;;;;0.73;0.70;;;15.70;99.90;;;;;;5012162;28;20194;-84
2021/07/21 05:08:09;;;;;;;0.37;0.37;;;15.90;99.90;;;;;;5013233;28;20204;-84
2021/07/21 05:10:35;;;;;;;0.40;0.40;;;16.00;99.90;;;;;;5032626;28;20197;-83
2021/07/21 05:13:01;;;;;;;0.30;0.30;;;16.20;99.90;;;;;;5012942;28;20727;-80
2021/07/21 05:15:27;;;;;;;0.37;0.37;;;16.10;99.90;;;;;;5012721;28;20197;-81
2021/07/21 05:17:53;;;;;;;0.37;0.37;;;16.10;99.90;;;;;;5015405;28;20187;-82
2021/07/21 05:20:19;;;;;;;2.03;0.77;;;16.20;99.90;;;;;;5033012;28;20212;-81
2021/07/21 05:22:47;;;;;;;0.40;0.40;;;16.20;99.90;;;;;;5013755;28;20208;-82
2021/07/21 05:25:15;;;;;;;0.50;0.50;;;16.30;99.90;;;;;;5004510;28;20194;-81
2021/07/21 05:27:41;;;;;;;2.87;0.33;;;16.40;99.90;;;;;;5006532;28;20607;-83
2021/07/21 05:30:07;;;;;;;0.13;0.13;;;16.40;99.90;;;;;;5032651;28;20193;-82
2021/07/21 05:32:33;;;;;;;0.73;0.73;;;16.50;99.90;;;;;;5016244;28;20189;-82
2021/07/21 05:34:59;;;;;;;0.30;0.30;;;16.40;99.90;;;;;;5013388;28;20190;-83
2021/07/21 05:37:24;;;;;;;0.60;0.60;;;16.50;99.90;;;;;;5018462;28;20186;-81
2021/07/21 05:39:50;;;;;;;0.63;0.60;;;16.60;99.90;;;;;;5012909;28;20213;-82
2021/07/21 05:42:16;;;;;;;0.83;0.60;;;16.60;99.90;;;;;;5013830;28;20672;-84
2021/07/21 05:44:41;;;;;;;0.43;0.43;;;16.70;99.90;;;;;;5032009;28;20276;-84
2021/07/21 05:47:07;;;;;;;0.97;0.70;;;16.80;99.90;;;;;;5008301;28;20240;-85
2021/07/21 05:49:33;;;;;;;0.50;0.40;;;16.90;99.90;;;;;;5019073;28;20217;-84
2021/07/21 05:51:58;;;;;;;1.13;0.90;;;17.10;99.90;;;;;;5033659;28;20182;-85
2021/07/21 05:54:24;;;;;;;0.40;0.40;;;17.10;99.90;;;;;;5013666;28;20193;-84
2021/07/21 05:56:50;;;;;;;0.47;0.47;;;17.20;99.90;;;;;;5014915;28;20239;-84
2021/07/21 05:59:16;;;;;;;0.60;0.60;;;17.10;99.90;;;;;;5006034;28;20210;-85
2021/07/21 06:01:41;;;;;;;0.83;0.83;;;17.20;99.90;;;;;;5012629;28;20280;-85
2021/07/21 06:04:08;;;;;;;0.43;0.43;;;17.30;99.90;;;;;;5040641;28;20653;-84
2021/07/21 06:06:34;;;;;;;0.30;0.30;;;17.40;99.90;;;;;;5023040;28;20213;-84
2021/07/21 06:09:00;;;;;;;2.20;0.60;;;17.60;99.90;;;;;;5029190;28;20213;-83
2021/07/21 06:11:26;;;;;;;0.73;0.73;;;17.70;99.90;;;;;;5017610;28;20675;-83
2021/07/21 06:13:56;;;;;;;3.30;0.30;;;17.90;99.90;;;;;;5025785;28;20313;-83
2021/07/21 06:16:22;;;;;;;0.20;0.20;;;18.20;99.90;;;;;;5011997;28;20214;-83
2021/07/21 06:18:48;;;;;;;0.37;0.37;;;18.50;99.90;;;;;;5013973;28;20252;-83
2021/07/21 06:21:14;;;;;;;0.47;0.47;;;18.60;99.90;;;;;;5032002;28;20721;-83
2021/07/21 06:23:40;;;;;;;0.23;0.23;;;18.80;99.90;;;;;;5025118;28;20190;-83
2021/07/21 06:26:06;;;;;;;0.43;0.43;;;18.80;99.90;;;;;;5015763;28;20693;-83
2021/07/21 06:28:31;;;;;;;0.30;0.30;;;19.20;99.90;;;;;;5013224;28;20261;-83
2021/07/21 06:30:57;;;;;;;0.20;0.20;;;19.50;99.90;;;;;;5011938;28;20317;-83
2021/07/21 06:33:23;;;;;;;0.43;0.43;;;19.80;99.90;;;;;;5003330;28;20653;-83
2021/07/21 06:35:49;;;;;;;0.63;0.63;;;19.90;99.90;;;;;;5019951;28;20646;-82
2021/07/21 06:38:15;;;;;;;0.20;0.20;;;20.20;99.90;;;;;;5027079;28;20198;-84
2021/07/21 06:40:41;;;;;;;0.40;0.40;;;20.40;99.90;;;;;;5028659;28;20221;-83
2021/07/21 06:43:10;;;;;;;0.53;0.50;;;20.50;99.90;;;;;;5024694;28;20186;-82
2021/07/21 06:45:35;;;;;;;0.20;0.20;;;20.50;99.90;;;;;;5013833;28;20655;-83
2021/07/21 06:48:02;;;;;;;0.30;0.30;;;20.70;99.90;;;;;;5008567;28;20215;-83
2021/07/21 06:50:28;;;;;;;0.50;0.50;;;21.00;99.90;;;;;;5029144;28;20190;-84
2021/07/21 06:52:54;;;;;;;0.57;0.50;;;21.10;99.90;;;;;;5029928;28;20565;-85
2021/07/21 06:55:19;;;;;;;0.63;0.60;;;21.10;99.90;;;;;;5009952;28;20240;-85
2021/07/21 06:57:46;;;;;;;0.50;0.50;;;21.30;99.90;;;;;;5023484;28;20186;-84
2021/07/21 07:00:11;;;;;;;0.50;0.50;;;21.40;99.90;;;;;;5014577;28;20658;-84
2021/07/21 07:02:37;;;;;;;0.30;0.30;;;21.40;99.90;;;;;;5029758;28;20186;-84
2021/07/21 07:05:03;;;;;;;0.50;0.50;;;21.40;99.90;;;;;;5026391;28;20711;-84
2021/07/21 07:07:29;;;;;;;0.60;0.53;;;20.70;99.90;;;;;;5014654;28;20613;-85
2021/07/21 07:09:55;;;;;;;0.63;0.60;;;20.70;99.90;;;;;;5014298;28;20206;-84
2021/07/21 07:12:20;;;;;;;2.40;0.77;;;21.00;99.90;;;;;;5014656;28;20724;-85
2021/07/21 07:14:46;;;;;;;0.40;0.40;;;21.00;99.90;;;;;;5014665;28;20185;-85
2021/07/21 07:17:12;;;;;;;0.43;0.40;;;20.70;99.90;;;;;;5014169;28;20666;-84
2021/07/21 07:19:37;;;;;;;0.70;0.70;;;20.80;99.90;;;;;;5018514;28;20224;-84
2021/07/21 07:22:04;;;;;;;0.60;0.60;;;20.70;99.90;;;;;;5014119;28;20554;-85
2021/07/21 07:24:30;;;;;;;0.83;0.83;;;20.60;99.90;;;;;;5014643;28;20229;-83
2021/07/21 07:26:59;;;;;;;0.40;0.40;;;20.50;99.90;;;;;;5031914;28;20650;-85
2021/07/21 07:29:26;;;;;;;0.33;0.33;;;20.80;99.90;;;;;;5014007;28;20210;-85
2021/07/21 07:31:52;;;;;;;1.57;0.60;;;21.30;99.90;;;;;;5014179;28;20201;-84
2021/07/21 07:34:18;;;;;;;0.97;0.60;;;21.60;99.90;;;;;;5014285;28;20186;-85
2021/07/21 07:36:45;;;;;;;0.60;0.60;;;21.70;99.90;;;;;;5009615;28;20174;-84
2021/07/21 07:39:11;;;;;;;0.50;0.43;;;21.60;99.90;;;;;;5008876;28;20273;-84
2021/07/21 07:41:37;;;;;;;0.30;0.30;;;21.80;99.90;;;;;;5024937;28;20186;-84
2021/07/21 07:44:04;;;;;;;0.50;0.50;;;21.90;99.90;;;;;;5014182;28;20194;-85
2021/07/21 07:46:30;;;;;;;2.27;0.67;;;22.20;99.90;;;;;;5014048;28;20206;-84
2021/07/21 07:48:57;;;;;;;0.47;0.47;;;22.20;99.90;;;;;;5048966;28;20198;-85
2021/07/21 07:51:23;;;;;;;0.53;0.53;;;22.40;99.90;;;;;;5032298;28;20197;-83
2021/07/21 07:53:48;;;;;;;1.10;0.53;;;22.40;99.90;;;;;;5031229;28;20555;-84
2021/07/21 07:56:14;;;;;;;1.63;0.43;;;22.10;99.90;;;;;;5023213;28;20193;-85
2021/07/21 07:58:40;;;;;;;0.77;0.70;;;21.90;99.90;;;;;;5028689;28;20285;-84
2021/07/21 08:01:06;;;;;;;0.80;0.60;;;21.70;99.90;;;;;;5014974;28;20536;-85
2021/07/21 08:03:31;;;;;;;1.33;0.53;;;21.50;99.90;;;;;;5017479;28;20200;-84
2021/07/21 08:05:59;;;;;;;0.53;0.50;;;21.60;99.90;;;;;;5026214;28;20194;-84
2021/07/21 08:08:28;;;;;;;0.60;0.60;;;21.60;99.90;;;;;;5029634;28;20208;-84
2021/07/21 08:10:54;;;;;;;0.70;0.70;;;22.00;99.90;;;;;;5009352;28;20259;-85
2021/07/21 08:13:20;;;;;;;0.50;0.50;;;21.80;99.90;;;;;;5011214;28;20650;-84
2021/07/21 08:15:46;;;;;;;0.40;0.40;;;21.80;99.90;;;;;;5010630;28;20181;-85
2021/07/21 08:18:12;;;;;;;0.43;0.43;;;22.00;99.90;;;;;;5012375;28;20199;-85
2021/07/21 08:20:39;;;;;;;0.87;0.70;;;22.10;99.90;;;;;;5027769;28;20186;-85
2021/07/21 08:23:05;;;;;;;0.33;0.33;;;22.20;99.90;;;;;;5013035;28;20193;-85
2021/07/21 08:25:31;;;;;;;0.53;0.53;;;22.10;99.90;;;;;;5030658;28;20578;-83
2021/07/21 08:27:57;;;;;;;0.87;0.80;;;22.20;99.90;;;;;;5030302;28;20198;-85
2021/07/21 08:30:24;;;;;;;0.77;0.40;;;21.90;99.90;;;;;;5006689;28;20195;-84
2021/07/21 08:32:52;;;;;;;0.50;0.47;;;21.90;99.90;;;;;;5012854;28;20554;-84
2021/07/21 08:35:24;;;;;;;1.07;0.50;;;22.10;99.90;;;;;;5013430;28;20661;-84
2021/07/21 08:37:50;;;;;;;0.97;0.70;;;22.00;99.90;;;;;;5018134;28;20259;-84
2021/07/21 08:40:18;;;;;;;0.40;0.40;;;22.00;99.90;;;;;;5031216;28;20189;-84
2021/07/21 08:42:45;;;;;;;0.40;0.40;;;22.00;99.90;;;;;;5031192;28;20263;-84
2021/07/21 08:45:12;;;;;;;0.40;0.40;;;22.00;99.90;;;;;;5030925;28;20190;-85
2021/07/21 08:47:39;;;;;;;2.50;1.00;;;22.00;99.90;;;;;;5004377;28;20301;-85
2021/07/21 08:50:06;;;;;;;0.40;0.40;;;22.10;99.90;;;;;;5008322;28;20254;-84
2021/07/21 08:52:32;;;;;;;0.50;0.50;;;22.40;99.90;;;;;;5014693;28;20189;-84
2021/07/21 08:55:00;;;;;;;1.30;0.80;;;22.10;99.90;;;;;;5034978;28;20209;-84
2021/07/21 08:57:32;;;;;;;1.03;0.57;;;21.90;99.90;;;;;;5017002;28;20672;-85
2021/07/21 08:59:59;;;;;;;0.60;0.60;;;22.00;99.90;;;;;;5016812;28;20202;-84
2021/07/21 09:02:25;;;;;;;0.83;0.83;;;22.10;99.90;;;;;;5022806;28;20204;-84
2021/07/21 09:04:52;;;;;;;0.70;0.70;;;22.20;99.90;;;;;;5027570;28;20191;-85
2021/07/21 09:07:18;;;;;;;0.20;0.20;;;22.10;99.90;;;;;;5013503;28;20590;-84
2021/07/21 09:09:43;;;;;;;1.20;0.60;;;22.50;99.90;;;;;;5011506;28;20195;-85
2021/07/21 09:12:10;;;;;;;0.10;0.10;;;22.90;99.90;;;;;;5034849;28;20170;-84
2021/07/21 09:14:38;;;;;;;0.60;0.60;;;22.80;99.90;;;;;;5015388;28;20190;-85
2021/07/21 09:17:11;;;;;;;0.50;0.40;;;22.70;99.90;;;;;;5031069;28;20245;-84
2021/07/21 09:19:42;;;;;;;0.57;0.57;;;22.50;99.90;;;;;;5033814;28;20236;-84
2021/07/21 09:22:12;;;;;;;0.53;0.47;;;22.40;99.90;;;;;;5020877;28;20760;-85
2021/07/21 09:24:37;;;;;;;0.43;0.43;;;22.40;99.90;;;;;;5016660;28;20205;-84
2021/07/21 09:27:03;;;;;;;0.63;0.63;;;22.60;99.90;;;;;;5016844;28;20206;-84
2021/07/21 09:29:29;;;;;;;0.70;0.70;;;22.70;99.90;;;;;;5015776;28;20206;-84
2021/07/21 09:31:58;;;;;;;0.50;0.43;;;22.60;99.90;;;;;;5016512;28;20329;-84
2021/07/21 09:34:26;;;;;;;1.80;0.90;;;22.60;99.90;;;;;;5016336;28;20189;-84
2021/07/21 09:37:04;;;;;;;1.10;0.97;;;22.40;99.90;;;;;;5020646;28;20183;-84
2021/07/21 09:39:38;;;;;;;0.37;0.37;;;22.50;99.90;;;;;;5008034;28;20202;-84
2021/07/21 09:42:06;;;;;;;0.70;0.63;;;22.80;99.90;;;;;;5049100;28;20181;-84
2021/07/21 09:44:36;;;;;;;0.60;0.50;;;22.90;99.90;;;;;;5054067;28;20185;-84
2021/07/21 09:47:22;;;;;;;0.37;0.30;;;23.30;99.90;;;;;;5053836;28;20344;-85
2021/07/21 09:49:49;;;;;;;0.30;0.30;;;23.20;99.90;;;;;;5035656;28;20208;-85
2021/07/21 09:52:21;;;;;;;0.53;0.40;;;23.30;99.90;;;;;;5032530;28;20316;-85
2021/07/21 09:55:13;;;;;;;3.57;0.57;;;23.60;99.90;;;;;;5032755;28;20184;-84
2021/07/21 09:57:39;;;;;;;0.70;0.70;;;23.40;99.90;;;;;;5027816;28;20185;-85
2021/07/21 10:00:23;;;;;;;1.60;0.77;;;23.30;99.90;;;;;;5012132;28;20198;-85
2021/07/21 10:02:51;;;;;;;0.30;0.30;;;23.10;99.90;;;;;;5014788;28;20718;-85
2021/07/21 10:05:17;;;;;;;0.50;0.50;;;23.30;99.90;;;;;;5012302;28;20190;-83
2021/07/21 10:10:16;;;;;;;0.53;0.40;;;23.10;99.90;;;;;;5030849;28;20241;-85
2021/07/21 10:12:43;;;;;;;0.97;0.47;;;23.80;99.90;;;;;;5005807;28;20690;-85
2021/07/21 10:15:09;;;;;;;0.40;0.33;;;24.10;99.90;;;;;;5013721;28;20186;-85
2021/07/21 10:17:35;;;;;;;0.40;0.40;;;24.00;99.90;;;;;;5013512;28;20183;-85
2021/07/21 10:20:01;;;;;;;0.40;0.40;;;24.20;99.90;;;;;;5013540;28;20206;-84
2021/07/21 10:22:27;;;;;;;2.27;1.20;;;24.40;99.90;;;;;;5014661;28;20196;-85
2021/07/21 10:24:53;;;;;;;0.30;0.30;;;24.50;99.90;;;;;;5014294;28;20189;-86
2021/07/21 10:27:19;;;;;;;0.80;0.57;;;24.20;99.90;;;;;;5015311;28;20198;-85
2021/07/21 10:29:45;;;;;;;0.50;0.40;;;24.20;99.90;;;;;;5011523;28;20226;-85
2021/07/21 10:32:14;;;;;;;0.53;0.53;;;24.30;99.90;;;;;;5014407;28;20689;-85
2021/07/21 10:34:42;;;;;;;0.40;0.40;;;23.70;99.90;;;;;;5011976;28;20174;-85
2021/07/21 10:37:08;;;;;;;0.63;0.60;;;23.90;99.90;;;;;;5015200;28;20186;-85
2021/07/21 10:39:36;;;;;;;1.10;1.10;;;24.50;99.90;;;;;;5013389;28;20578;-86
2021/07/21 10:42:07;;;;;;;0.67;0.50;;;24.00;99.90;;;;;;5031920;28;20662;-85
2021/07/21 10:44:33;;;;;;;0.63;0.60;;;23.80;99.90;;;;;;5012934;28;20240;-85
2021/07/21 10:46:59;;;;;;;0.43;0.40;;;24.40;99.90;;;;;;5012919;28;20726;-84
2021/07/21 10:54:55;;;;;;;0.63;0.63;;;24.50;99.90;;;;;;5023721;28;20174;-85
2021/07/21 11:00:24;;;;;;;0.37;0.37;;;24.30;99.90;;;;;;4948936;28;20209;-86
2021/07/21 11:02:52;;;;;;;2.83;0.70;;;24.40;99.90;;;;;;5012885;28;20187;-85
2021/07/21 11:05:48;;;;;;;0.40;0.40;;;24.30;99.90;;;;;;5031292;28;20182;-84
2021/07/21 11:08:19;;;;;;;0.57;0.57;;;23.80;99.90;;;;;;5012017;28;20217;-85
2021/07/21 11:10:47;;;;;;;0.50;0.40;;;24.10;99.90;;;;;;5014058;28;20178;-85
2021/07/21 11:13:28;;;;;;;0.30;0.30;;;24.30;99.90;;;;;;5012395;28;20186;-85
2021/07/21 11:15:57;;;;;;;1.47;0.63;;;25.10;99.90;;;;;;5012654;28;20189;-85
2021/07/21 11:18:23;;;;;;;0.50;0.50;;;25.40;99.90;;;;;;5015666;28;20291;-86
2021/07/21 11:20:59;;;;;;;1.63;0.67;;;25.50;99.90;;;;;;5026898;28;20197;-85
2021/07/21 11:23:42;;;;;;;0.50;0.30;;;25.30;99.90;;;;;;5014728;28;20178;-85
2021/07/21 11:26:30;;;;;;;1.00;0.53;;;24.70;99.90;;;;;;5011272;28;20202;-84
2021/07/21 11:28:57;;;;;;;0.57;0.43;;;24.50;99.90;;;;;;5028888;28;20205;-85
2021/07/21 11:31:48;;;;;;;0.43;0.43;;;24.70;99.90;;;;;;5030586;28;20217;-85
2021/07/21 11:34:27;;;;;;;0.63;0.57;;;24.60;99.90;;;;;;5000320;28;20276;-86
2021/07/21 11:36:58;;;;;;;0.33;0.33;;;24.80;99.90;;;;;;5006352;28;20546;-84
2021/07/21 11:39:44;;;;;;;2.10;0.67;;;25.00;99.90;;;;;;5012620;28;20218;-84
2021/07/21 11:42:33;;;;;;;0.53;0.53;;;25.40;99.90;;;;;;5026019;28;20194;-85
2021/07/21 11:45:05;;;;;;;0.60;0.60;;;25.70;99.90;;;;;;5016408;28;20182;-86
2021/07/21 11:47:35;;;;;;;2.10;1.00;;;25.30;99.90;;;;;;5011119;28;20300;-84
2021/07/21 11:50:07;;;;;;;0.47;0.47;;;24.60;99.90;;;;;;5004318;28;20202;-85
2021/07/21 11:52:32;;;;;;;2.20;0.80;;;25.00;99.90;;;;;;5014009;28;20182;-85
2021/07/21 11:54:58;;;;;;;0.30;0.30;;;25.50;99.90;;;;;;5018977;28;20209;-85
2021/07/21 11:57:27;;;;;;;0.50;0.50;;;25.80;99.90;;;;;;5027585;28;20675;-84
2021/07/21 11:59:58;;;;;;;0.50;0.50;;;26.00;99.90;;;;;;5017992;28;20206;-84
2021/07/21 12:02:25;;;;;;;0.60;0.60;;;26.40;99.90;;;;;;5018450;28;20674;-85
2021/07/21 12:04:53;;;;;;;1.43;1.43;;;26.10;99.90;;;;;;5009251;28;20191;-85
2021/07/21 12:07:21;;;;;;;1.53;1.13;;;26.10;99.90;;;;;;5010106;28;20209;-83
2021/07/21 12:09:48;;;;;;;0.37;0.37;;;26.30;99.90;;;;;;5008999;28;20208;-85
2021/07/21 12:12:16;;;;;;;0.80;0.80;;;25.90;99.90;;;;;;5010679;28;20185;-85
2021/07/21 12:14:54;;;;;;;1.03;0.83;;;25.70;99.90;;;;;;5011121;28;20263;-85
2021/07/21 12:17:22;;;;;;;0.57;0.57;;;25.60;99.90;;;;;;5024599;28;20212;-84
2021/07/21 12:19:56;;;;;;;1.33;0.73;;;26.10;99.90;;;;;;5014730;28;20293;-85
2021/07/21 12:22:23;;;;;;;0.63;0.63;;;26.40;99.90;;;;;;5027323;28;20221;-84
2021/07/21 12:24:54;;;;;;;0.70;0.70;;;25.70;99.90;;;;;;5025273;28;20214;-85
2021/07/21 12:27:28;;;;;;;0.37;0.37;;;26.00;99.90;;;;;;5013390;28;20264;-85
2021/07/21 12:29:56;;;;;;;1.37;0.80;;;26.60;99.90;;;;;;5007708;28;20230;-85
2021/07/21 12:32:21;;;;;;;0.70;0.70;;;26.10;99.90;;;;;;5019395;28;20244;-85
2021/07/21 12:34:49;;;;;;;1.33;0.93;;;26.30;99.90;;;;;;5009291;28;20178;-85
2021/07/21 12:37:17;;;;;;;1.77;0.50;;;26.10;99.90;;;;;;5013303;28;20221;-85
2021/07/21 12:39:44;;;;;;;0.70;0.70;;;26.40;99.90;;;;;;5015353;28;20206;-85
2021/07/21 12:42:12;;;;;;;0.33;0.33;;;26.00;99.90;;;;;;5017966;28;20195;-85
2021/07/21 12:44:46;;;;;;;1.97;0.57;;;26.00;99.90;;;;;;5018368;28;20189;-84
2021/07/21 12:47:16;;;;;;;0.50;0.50;;;25.80;99.90;;;;;;5037086;28;20202;-84
2021/07/21 12:49:44;;;;;;;1.90;0.93;;;25.90;99.90;;;;;;5019317;28;20194;-83
2021/07/21 12:52:26;;;;;;;0.40;0.40;;;25.40;99.90;;;;;;5018770;28;20185;-85
2021/07/21 12:54:54;;;;;;;0.70;0.70;;;25.60;99.90;;;;;;5019031;28;20242;-85
2021/07/21 12:57:35;;;;;;;0.63;0.37;;;26.00;99.90;;;;;;5025476;28;20557;-84
2021/07/21 13:00:05;;;;;;;0.57;0.57;;;26.40;99.90;;;;;;5018850;28;20206;-85
2021/07/21 13:02:32;;;;;;;0.30;0.30;;;26.20;99.90;;;;;;5018238;28;20297;-85
2021/07/21 13:04:59;;;;;;;0.53;0.53;;;26.40;99.90;;;;;;5017387;28;20547;-85
2021/07/21 13:07:24;;;;;;;0.40;0.40;;;26.30;99.90;;;;;;5020042;28;20214;-85